createdAt,value
2018-09-09T00:00:35.025Z,17.38
2018-09-09T00:03:05.283Z,17.39
2018-09-09T00:05:35.788Z,17.41
2018-09-09T00:08:06.645Z,17.45
2018-09-09T00:10:37.144Z,17.58
2018-09-09T00:13:07.813Z,17.69
2018-09-09T00:15:38.575Z,18.07
2018-09-09T00:18:09.415Z,18.76
2018-09-09T00:20:40.011Z,19.28
2018-09-09T00:23:10.720Z,19.40
2018-09-09T00:25:41.244Z,18.99
2018-09-09T00:28:12.054Z,18.61
2018-09-09T00:30:42.564Z,18.34
2018-09-09T00:33:13.044Z,18.25
2018-09-09T00:35:43.576Z,18.19
2018-09-09T00:38:14.166Z,18.20
2018-09-09T00:40:44.719Z,18.22
2018-09-09T00:43:15.247Z,18.30
2018-09-09T00:45:46.085Z,18.44
2018-09-09T00:48:16.577Z,18.43
2018-09-09T00:50:52.099Z,18.53
2018-09-09T00:53:46.068Z,18.35
2018-09-09T00:56:17.392Z,18.16
2018-09-09T00:58:49.909Z,18.40
2018-09-09T01:01:20.636Z,18.54
2018-09-09T01:03:51.819Z,18.46
2018-09-09T01:06:22.677Z,18.73
2018-09-09T01:08:54.075Z,19.20
2018-09-09T01:11:24.920Z,19.45
2018-09-09T01:13:55.640Z,19.56
2018-09-09T01:16:26.279Z,19.78
2018-09-09T01:18:56.880Z,19.93
2018-09-09T01:21:27.903Z,19.52
2018-09-09T01:23:58.624Z,18.96
2018-09-09T01:26:29.308Z,19.11
2018-09-09T01:28:59.802Z,19.56
2018-09-09T01:31:30.339Z,19.65
2018-09-09T01:34:01.589Z,19.17
2018-09-09T01:36:32.168Z,19.02
2018-09-09T01:39:02.903Z,19.01
2018-09-09T01:41:34.639Z,18.96
2018-09-09T01:44:05.178Z,18.97
2018-09-09T01:46:35.857Z,18.64
2018-09-09T01:49:06.964Z,18.77
2018-09-09T01:51:37.181Z,18.86
2018-09-09T01:54:07.960Z,18.96
2018-09-09T01:56:38.283Z,18.86
2018-09-09T01:59:10.453Z,18.73
2018-09-09T02:01:41.084Z,18.56
2018-09-09T02:04:11.958Z,18.37
2018-09-09T02:06:42.452Z,18.08
2018-09-09T02:09:14.156Z,18.11
2018-09-09T02:11:45.452Z,18.02
2018-09-09T02:14:16.139Z,17.90
2018-09-09T02:16:46.355Z,17.61
2018-09-09T02:19:16.857Z,17.30
2018-09-09T02:21:47.445Z,17.09
2018-09-09T02:24:17.954Z,17.13
2018-09-09T02:26:48.608Z,17.13
2018-09-09T02:29:19.320Z,17.63
2018-09-09T02:31:49.905Z,17.88
2018-09-09T02:34:20.419Z,17.53
2018-09-09T02:36:50.932Z,17.25
2018-09-09T02:39:21.752Z,17.21
2018-09-09T02:41:52.588Z,17.23
2018-09-09T02:44:24.931Z,17.32
2018-09-09T02:46:55.650Z,17.30
2018-09-09T02:49:26.016Z,17.27
2018-09-09T02:51:56.556Z,17.02
2018-09-09T02:54:27.467Z,16.81
2018-09-09T02:56:58.344Z,17.13
2018-09-09T02:59:29.070Z,17.62
2018-09-09T03:01:59.617Z,17.95
2018-09-09T03:04:30.109Z,17.87
2018-09-09T03:07:00.628Z,17.62
2018-09-09T03:09:31.320Z,17.60
2018-09-09T03:12:01.700Z,17.99
2018-09-09T03:14:33.622Z,18.32
2018-09-09T03:17:04.429Z,18.50
2018-09-09T03:19:35.138Z,18.54
2018-09-09T03:22:05.639Z,18.54
2018-09-09T03:24:36.238Z,18.35
2018-09-09T03:27:06.798Z,18.22
2018-09-09T03:29:38.043Z,18.06
2018-09-09T03:33:11.436Z,17.89
2018-09-09T03:35:41.915Z,17.87
2018-09-09T03:38:12.646Z,17.79
2018-09-09T03:40:42.949Z,17.51
2018-09-09T03:43:13.780Z,17.20
2018-09-09T03:45:44.310Z,16.80
2018-09-09T03:48:14.921Z,16.84
2018-09-09T03:50:45.387Z,16.86
2018-09-09T03:53:16.295Z,17.02
2018-09-09T03:55:46.780Z,17.13
2018-09-09T03:58:18.759Z,16.94
2018-09-09T04:00:49.277Z,16.78
2018-09-09T04:03:19.526Z,16.54
2018-09-09T04:05:51.322Z,16.33
2018-09-09T04:08:21.860Z,16.21
2018-09-09T04:10:53.433Z,16.17
2018-09-09T04:13:23.703Z,16.10
2018-09-09T04:15:54.232Z,16.22
2018-09-09T04:18:24.746Z,16.23
2018-09-09T04:20:55.444Z,16.27
2018-09-09T04:23:26.248Z,16.30
2018-09-09T04:25:56.798Z,16.26
2018-09-09T04:28:27.314Z,16.33
2018-09-09T04:30:57.952Z,16.31
2018-09-09T04:33:29.071Z,16.22
2018-09-09T04:35:59.566Z,16.16
2018-09-09T04:38:30.059Z,16.13
2018-09-09T04:41:00.573Z,16.27
2018-09-09T04:43:30.799Z,16.42
2018-09-09T04:46:01.360Z,16.54
2018-09-09T04:48:31.873Z,16.59
2018-09-09T04:51:02.440Z,16.62
2018-09-09T04:53:32.925Z,16.59
2018-09-09T04:56:03.479Z,16.67
2018-09-09T04:58:34.110Z,16.76
2018-09-09T05:01:04.620Z,16.91
2018-09-09T05:03:35.687Z,17.00
2018-09-09T05:06:06.395Z,17.09
2018-09-09T05:08:36.750Z,17.10
2018-09-09T05:11:07.566Z,17.17
2018-09-09T05:13:37.820Z,17.30
2018-09-09T05:16:08.340Z,17.45
2018-09-09T05:18:38.599Z,17.56
2018-09-09T05:21:09.951Z,17.65
2018-09-09T05:23:40.554Z,17.83
2018-09-09T05:26:11.048Z,17.76
2018-09-09T05:28:41.616Z,17.82
2018-09-09T05:31:12.108Z,17.76
2018-09-09T05:33:42.963Z,17.81
2018-09-09T05:36:13.800Z,18.03
2018-09-09T05:38:44.040Z,18.00
2018-09-09T05:41:14.912Z,17.62
2018-09-09T05:43:46.137Z,17.74
2018-09-09T05:46:16.969Z,17.73
2018-09-09T05:48:47.490Z,17.91
2018-09-09T05:51:17.909Z,18.12
2018-09-09T05:53:48.433Z,18.28
2018-09-09T05:56:19.171Z,18.21
2018-09-09T05:58:50.728Z,18.18
2018-09-09T06:01:21.295Z,18.15
2018-09-09T06:03:51.549Z,18.31
2018-09-09T06:06:22.064Z,18.43
2018-09-09T06:08:52.563Z,18.55
2018-09-09T06:11:23.135Z,18.52
2018-09-09T06:13:53.953Z,18.40
2018-09-09T06:16:24.448Z,19.10
2018-09-09T06:18:55.360Z,19.30
2018-09-09T06:21:26.147Z,19.21
2018-09-09T06:23:56.677Z,19.40
2018-09-09T06:26:27.414Z,19.64
2018-09-09T06:28:57.727Z,19.89
2018-09-09T06:31:28.268Z,19.85
2018-09-09T06:33:58.538Z,19.90
2018-09-09T06:36:30.049Z,19.86
2018-09-09T06:39:00.365Z,19.40
2018-09-09T06:41:31.269Z,19.92
2018-09-09T06:44:03.078Z,20.23
2018-09-09T06:46:33.580Z,20.03
2018-09-09T06:49:04.649Z,19.84
2018-09-09T06:51:35.229Z,20.15
2018-09-09T06:54:05.800Z,20.12
2018-09-09T06:56:36.302Z,20.22
2018-09-09T06:59:06.585Z,19.99
2018-09-09T07:01:36.802Z,20.13
2018-09-09T07:04:07.348Z,20.06
2018-09-09T07:06:37.831Z,20.47
2018-09-09T07:09:10.121Z,20.23
2018-09-09T07:11:40.708Z,20.58
2018-09-09T07:14:11.532Z,20.54
2018-09-09T07:16:42.142Z,20.39
2018-09-09T07:19:12.697Z,20.27
2018-09-09T07:21:43.961Z,20.97
2018-09-09T07:24:14.594Z,20.59
2018-09-09T07:26:45.124Z,20.35
2018-09-09T07:29:15.398Z,20.43
2018-09-09T07:31:46.164Z,20.44
2018-09-09T07:34:17.173Z,20.64
2018-09-09T07:36:47.861Z,20.91
2018-09-09T07:39:19.949Z,20.89
2018-09-09T07:41:50.533Z,20.93
2018-09-09T07:44:21.256Z,20.61
2018-09-09T07:46:51.758Z,20.58
2018-09-09T07:49:22.519Z,20.83
2018-09-09T07:51:53.246Z,20.84
2018-09-09T07:54:23.661Z,20.97
2018-09-09T07:56:54.187Z,21.08
2018-09-09T07:59:24.721Z,21.30
2018-09-09T08:01:55.436Z,21.41
2018-09-09T08:04:25.819Z,21.36
2018-09-09T08:06:56.371Z,21.40
2018-09-09T08:09:27.183Z,21.36
2018-09-09T08:11:57.795Z,21.38
2018-09-09T08:14:28.471Z,21.58
2018-09-09T08:16:58.998Z,21.51
2018-09-09T08:19:29.488Z,21.46
2018-09-09T08:21:59.975Z,21.63
2018-09-09T08:24:30.717Z,21.84
2018-09-09T08:27:01.196Z,22.02
2018-09-09T08:29:31.829Z,22.39
2018-09-09T08:32:02.878Z,22.27
2018-09-09T08:34:33.697Z,22.35
2018-09-09T08:37:04.288Z,22.35
2018-09-09T08:39:34.552Z,22.24
2018-09-09T08:42:05.338Z,22.23
2018-09-09T08:44:36.084Z,22.16
2018-09-09T08:47:06.632Z,22.54
2018-09-09T08:49:37.169Z,22.74
2018-09-09T08:52:07.763Z,22.53
2018-09-09T08:54:43.469Z,22.78
2018-09-09T08:57:14.520Z,23.47
2018-09-09T08:59:45.092Z,23.27
2018-09-09T09:02:15.698Z,23.62
2018-09-09T09:04:46.434Z,23.29
2018-09-09T09:07:17.041Z,23.07
2018-09-09T09:09:47.742Z,23.25
2018-09-09T09:12:18.027Z,23.04
2018-09-09T09:14:48.746Z,23.80
2018-09-09T09:17:19.437Z,24.03
2018-09-09T09:19:49.951Z,23.70
2018-09-09T09:22:20.163Z,23.55
2018-09-09T09:24:50.395Z,23.44
2018-09-09T09:27:20.940Z,24.21
2018-09-09T09:29:58.487Z,25.24
2018-09-09T09:32:29.023Z,27.70
2018-09-09T09:34:59.333Z,31.68
2018-09-09T09:37:31.003Z,30.49
2018-09-09T09:40:09.673Z,30.79
2018-09-09T09:42:39.958Z,37.58
2018-09-09T09:45:11.704Z,36.94
2018-09-09T09:47:42.457Z,37.79
2018-09-09T09:50:12.972Z,40.22
2018-09-09T09:52:43.212Z,42.52
2018-09-09T09:55:13.811Z,40.94
2018-09-09T09:57:44.552Z,40.69
2018-09-09T10:00:20.399Z,40.47
2018-09-09T10:02:51.038Z,41.60
2018-09-09T10:05:22.092Z,44.37
2018-09-09T10:07:52.749Z,43.23
2018-09-09T10:10:23.001Z,41.26
2018-09-09T10:12:53.516Z,35.62
2018-09-09T10:15:24.021Z,35.39
2018-09-09T10:17:54.277Z,34.14
2018-09-09T10:20:24.772Z,36.94
2018-09-09T10:22:55.317Z,43.59
2018-09-09T10:25:25.916Z,42.01
2018-09-09T10:27:56.498Z,44.13
2018-09-09T10:30:27.689Z,41.74
2018-09-09T10:32:57.949Z,37.76
2018-09-09T10:35:28.467Z,42.22
2018-09-09T10:37:59.219Z,45.95
2018-09-09T10:40:29.951Z,44.22
2018-09-09T10:43:00.199Z,39.82
2018-09-09T10:45:30.768Z,36.66
2018-09-09T10:48:01.524Z,35.96
2018-09-09T10:50:31.720Z,37.43
2018-09-09T10:53:02.400Z,33.38
2018-09-09T10:55:32.900Z,30.91
2018-09-09T10:58:03.762Z,30.48
2018-09-09T11:00:34.800Z,29.99
2018-09-09T11:03:05.475Z,27.99
2018-09-09T11:05:36.852Z,27.64
2018-09-09T11:08:08.160Z,28.33
2018-09-09T11:10:39.008Z,27.96
2018-09-09T11:13:09.839Z,27.89
2018-09-09T11:15:42.274Z,28.19
2018-09-09T11:18:14.333Z,28.27
2018-09-09T11:20:54.809Z,28.52
2018-09-09T11:23:25.360Z,29.53
2018-09-09T11:25:56.160Z,29.85
2018-09-09T11:28:27.673Z,30.32
2018-09-09T11:30:58.166Z,29.85
2018-09-09T11:33:28.639Z,29.60
2018-09-09T11:35:59.129Z,29.19
2018-09-09T11:38:29.328Z,29.32
2018-09-09T11:40:59.937Z,28.97
2018-09-09T11:43:30.819Z,28.27
2018-09-09T11:46:03.065Z,28.68
2018-09-09T11:48:33.883Z,28.30
2018-09-09T11:51:04.454Z,28.25
2018-09-09T11:53:40.184Z,28.04
2018-09-09T11:56:10.776Z,28.28
2018-09-09T11:58:41.022Z,28.79
2018-09-09T12:01:11.592Z,28.38
2018-09-09T12:03:42.324Z,27.51
2018-09-09T12:06:14.416Z,26.94
2018-09-09T12:08:44.944Z,26.95
2018-09-09T12:11:15.805Z,27.63
2018-09-09T12:13:46.716Z,27.59
2018-09-09T12:16:18.079Z,27.23
2018-09-09T12:18:49.074Z,27.16
2018-09-09T12:21:24.936Z,26.98
2018-09-09T12:23:56.455Z,27.10
2018-09-09T12:26:28.248Z,27.53
2018-09-09T12:28:59.578Z,28.14
2018-09-09T12:31:30.155Z,28.00
2018-09-09T12:34:01.400Z,28.31
2018-09-09T12:36:32.611Z,29.00
2018-09-09T12:39:03.625Z,29.78
2018-09-09T12:41:39.275Z,30.61
2018-09-09T12:44:15.375Z,29.88
2018-09-09T12:46:51.185Z,28.17
2018-09-09T12:49:46.010Z,27.48
2018-09-09T12:52:26.685Z,26.61
2018-09-09T12:54:57.739Z,27.06
2018-09-09T12:57:28.455Z,27.39
2018-09-09T12:59:58.800Z,28.27
2018-09-09T13:02:30.453Z,29.11
2018-09-09T13:05:00.961Z,29.32
2018-09-09T13:07:31.406Z,28.62
2018-09-09T13:10:01.944Z,27.91
2018-09-09T13:12:38.563Z,27.45
2018-09-09T13:15:10.846Z,27.44
2018-09-09T13:17:41.100Z,27.63
2018-09-09T13:20:11.647Z,26.99
2018-09-09T13:22:42.742Z,26.81
2018-09-09T13:25:13.317Z,26.83
2018-09-09T13:27:43.846Z,26.98
2018-09-09T13:30:14.412Z,27.00
2018-09-09T13:32:44.762Z,26.57
2018-09-09T13:35:15.496Z,26.54
2018-09-09T13:37:46.205Z,26.37
2018-09-09T13:40:16.799Z,26.39
2018-09-09T13:42:47.377Z,26.60
2018-09-09T13:45:17.996Z,27.01
2018-09-09T13:47:48.792Z,26.83
2018-09-09T13:50:19.738Z,26.43
2018-09-09T13:52:50.145Z,26.44
2018-09-09T13:55:20.867Z,26.00
2018-09-09T13:57:51.511Z,26.15
2018-09-09T14:00:21.844Z,26.24
2018-09-09T14:02:52.369Z,26.13
2018-09-09T14:05:22.812Z,26.04
2018-09-09T14:07:53.064Z,26.42
2018-09-09T14:10:28.992Z,26.58
2018-09-09T14:13:11.684Z,26.83
2018-09-09T14:15:44.736Z,26.93
2018-09-09T14:18:15.720Z,27.16
2018-09-09T14:20:47.271Z,27.08
2018-09-09T14:23:18.000Z,27.31
2018-09-09T14:25:49.139Z,27.08
2018-09-09T14:28:19.682Z,26.63
2018-09-09T14:30:50.270Z,26.64
2018-09-09T14:33:21.959Z,26.77
2018-09-09T14:35:52.569Z,26.56
2018-09-09T14:38:25.321Z,26.81
2018-09-09T14:40:55.900Z,27.04
2018-09-09T14:43:27.085Z,26.55
2018-09-09T14:45:57.601Z,26.50
2018-09-09T14:48:28.416Z,26.48
2018-09-09T14:50:58.777Z,26.32
2018-09-09T14:53:30.045Z,26.57
2018-09-09T14:56:31.376Z,26.43
2018-09-09T14:59:03.618Z,26.39
2018-09-09T15:01:34.745Z,26.40
2018-09-09T15:04:05.543Z,26.67
2018-09-09T15:06:36.627Z,26.14
2018-09-09T15:09:09.223Z,26.03
2018-09-09T15:11:40.578Z,26.41
2018-09-09T15:14:11.016Z,26.47
2018-09-09T15:16:41.850Z,26.24
2018-09-09T15:19:13.217Z,26.01
2018-09-09T15:21:43.738Z,25.96
2018-09-09T15:24:14.005Z,25.98
2018-09-09T15:26:44.323Z,25.77
2018-09-09T15:29:14.781Z,25.68
2018-09-09T15:31:45.324Z,25.70
2018-09-09T15:34:16.233Z,25.72
2018-09-09T15:36:46.960Z,25.43
2018-09-09T15:39:17.498Z,25.49
2018-09-09T15:41:50.334Z,25.37
2018-09-09T15:44:24.296Z,25.40
2018-09-09T15:46:54.781Z,25.42
2018-09-09T15:49:25.292Z,25.32
2018-09-09T15:51:55.934Z,25.39
2018-09-09T15:54:26.744Z,25.47
2018-09-09T15:56:56.982Z,25.22
2018-09-09T15:59:27.633Z,25.07
2018-09-09T16:01:57.811Z,24.99
2018-09-09T16:04:28.040Z,24.93
2018-09-09T16:06:59.240Z,24.83
2018-09-09T16:09:29.889Z,24.98
2018-09-09T16:12:00.358Z,24.91
2018-09-09T16:14:30.919Z,24.87
2018-09-09T16:17:01.950Z,24.89
2018-09-09T16:19:36.760Z,24.80
2018-09-09T16:22:07.289Z,24.95
2018-09-09T16:24:37.824Z,24.98
2018-09-09T16:27:08.339Z,24.95
2018-09-09T16:29:41.246Z,24.79
2018-09-09T16:32:11.842Z,24.80
2018-09-09T16:34:43.396Z,24.80
2018-09-09T16:37:15.170Z,24.73
2018-09-09T16:39:47.103Z,24.59
2018-09-09T16:42:25.454Z,24.63
2018-09-09T16:44:59.076Z,24.68
2018-09-09T16:47:29.955Z,24.71
2018-09-09T16:50:01.407Z,24.65
2018-09-09T16:52:34.088Z,24.84
2018-09-09T16:55:11.992Z,24.78
2018-09-09T16:57:49.012Z,24.66
2018-09-09T17:00:23.361Z,24.65
2018-09-09T17:02:54.520Z,24.63
2018-09-09T17:05:30.882Z,24.50
2018-09-09T17:08:01.476Z,24.53
2018-09-09T17:10:33.926Z,24.87
2018-09-09T17:13:07.072Z,25.26
2018-09-09T17:15:47.207Z,24.97
2018-09-09T17:18:41.542Z,24.82
2018-09-09T17:21:20.357Z,24.64
2018-09-09T17:23:59.511Z,24.84
2018-09-09T17:26:30.487Z,24.84
2018-09-09T17:29:01.740Z,24.97
2018-09-09T17:31:32.065Z,25.39
2018-09-09T17:34:03.124Z,25.87
2018-09-09T17:36:34.065Z,26.18
2018-09-09T17:39:06.604Z,25.96
2018-09-09T17:41:44.410Z,25.63
2018-09-09T17:44:17.443Z,25.63
2018-09-09T17:46:50.736Z,25.80
2018-09-09T17:54:55.903Z,25.33
2018-09-09T17:57:27.418Z,25.19
2018-09-09T17:59:57.930Z,24.54
2018-09-09T18:02:29.598Z,24.53
2018-09-09T18:05:06.916Z,24.05
2018-09-09T18:07:43.749Z,23.61
2018-09-09T18:10:14.712Z,23.34
2018-09-09T18:12:45.723Z,23.19
2018-09-09T18:15:16.290Z,23.27
2018-09-09T18:17:46.664Z,23.16
2018-09-09T18:20:17.456Z,23.03
2018-09-09T18:22:48.070Z,22.94
2018-09-09T18:25:18.633Z,22.90
2018-09-09T18:27:48.901Z,22.95
2018-09-09T18:30:19.648Z,22.73
2018-09-09T18:32:50.272Z,22.61
2018-09-09T18:35:20.633Z,22.66
2018-09-09T18:37:51.189Z,22.65
2018-09-09T18:40:21.852Z,22.72
2018-09-09T18:42:52.425Z,22.48
2018-09-09T18:45:23.144Z,22.22
2018-09-09T18:47:54.184Z,22.54
2018-09-09T18:50:25.827Z,22.68
2018-09-09T18:52:56.336Z,22.82
2018-09-09T18:55:27.316Z,22.55
2018-09-09T18:57:58.356Z,22.25
2018-09-09T19:00:28.908Z,22.06
2018-09-09T19:02:59.172Z,21.78
2018-09-09T19:05:30.500Z,21.61
2018-09-09T19:08:01.292Z,21.68
2018-09-09T19:10:31.789Z,22.09
2018-09-09T19:13:02.292Z,22.00
2018-09-09T19:15:32.949Z,22.00
2018-09-09T19:18:03.581Z,21.86
2018-09-09T19:20:34.197Z,21.94
2018-09-09T19:23:05.419Z,22.26
2018-09-09T19:25:36.208Z,22.44
2018-09-09T19:28:07.284Z,22.50
2018-09-09T19:30:38.165Z,22.85
2018-09-09T19:33:09.617Z,23.10
2018-09-09T19:35:40.330Z,23.19
2018-09-09T19:38:10.605Z,22.12
2018-09-09T19:40:41.198Z,21.54
2018-09-09T19:43:11.492Z,21.12
2018-09-09T19:45:42.019Z,20.62
2018-09-09T19:48:12.880Z,20.43
2018-09-09T19:50:43.714Z,20.98
2018-09-09T19:53:14.457Z,21.39
2018-09-09T19:55:45.003Z,21.35
2018-09-09T19:58:15.602Z,20.87
2018-09-09T20:00:46.300Z,21.40
2018-09-09T20:03:16.778Z,21.86
2018-09-09T20:05:47.144Z,21.91
2018-09-09T20:08:17.672Z,22.22
2018-09-09T20:10:47.982Z,21.23
2018-09-09T20:13:18.436Z,21.83
2018-09-09T20:15:48.705Z,22.07
2018-09-09T20:18:19.368Z,21.31
2018-09-09T20:20:49.693Z,20.87
2018-09-09T20:23:20.328Z,22.21
2018-09-09T20:25:50.898Z,21.88
2018-09-09T20:28:21.892Z,21.72
2018-09-09T20:30:52.517Z,21.77
2018-09-09T20:33:22.762Z,21.03
2018-09-09T20:35:53.284Z,20.98
2018-09-09T20:38:23.527Z,21.45
2018-09-09T20:40:53.732Z,21.10
2018-09-09T20:43:24.268Z,20.91
2018-09-09T20:45:55.161Z,20.79
2018-09-09T20:48:25.952Z,20.81
2018-09-09T20:50:56.518Z,20.98
2018-09-09T20:53:27.237Z,20.86
2018-09-09T20:55:59.957Z,20.82
2018-09-09T20:58:30.467Z,21.05
2018-09-09T21:01:00.964Z,21.46
2018-09-09T21:03:32.168Z,21.51
2018-09-09T21:06:02.993Z,21.68
2018-09-09T21:08:33.669Z,21.76
2018-09-09T21:11:04.577Z,21.86
2018-09-09T21:13:35.078Z,21.61
2018-09-09T21:16:05.999Z,21.73
2018-09-09T21:18:36.664Z,22.01
2018-09-09T21:21:07.057Z,22.23
2018-09-09T21:23:37.615Z,21.17
2018-09-09T21:26:08.445Z,20.23
2018-09-09T21:28:39.578Z,19.95
2018-09-09T21:31:10.232Z,20.00
2018-09-09T21:33:40.735Z,20.03
2018-09-09T21:36:11.150Z,20.01
2018-09-09T21:38:41.731Z,20.26
2018-09-09T21:41:11.927Z,20.82
2018-09-09T21:43:42.571Z,21.27
2018-09-09T21:46:13.615Z,21.34
2018-09-09T21:48:44.514Z,21.79
2018-09-09T21:51:15.260Z,22.01
2018-09-09T21:53:45.900Z,21.90
2018-09-09T21:56:16.634Z,21.37
2018-09-09T21:58:47.147Z,21.59
2018-09-09T22:02:21.094Z,20.84
2018-09-09T22:04:51.811Z,21.27
2018-09-09T22:07:22.692Z,21.43
2018-09-09T22:09:53.296Z,21.56
2018-09-09T22:12:24.086Z,21.66
2018-09-09T22:14:54.595Z,21.47
2018-09-09T22:17:25.106Z,20.97
2018-09-09T22:19:55.355Z,20.54
2018-09-09T22:22:25.863Z,20.61
2018-09-09T22:24:56.818Z,21.14
2018-09-09T22:27:27.307Z,21.26
2018-09-09T22:29:58.342Z,20.75
2018-09-09T22:32:28.872Z,20.48
2018-09-09T22:34:59.417Z,19.82
2018-09-09T22:37:30.078Z,19.42
2018-09-09T22:40:00.751Z,19.12
2018-09-09T22:42:35.259Z,18.68
2018-09-09T22:45:08.850Z,18.48
2018-09-09T22:47:39.742Z,18.19
2018-09-09T22:50:10.334Z,18.12
2018-09-09T22:52:41.103Z,18.00
2018-09-09T22:55:12.695Z,18.11
2018-09-09T22:57:43.222Z,18.32
2018-09-09T23:00:13.766Z,18.64
2018-09-09T23:02:44.361Z,19.30
2018-09-09T23:05:15.525Z,19.98
2018-09-09T23:07:45.889Z,19.99
2018-09-09T23:10:16.644Z,20.10
2018-09-09T23:12:47.227Z,20.02
2018-09-09T23:15:22.032Z,19.59
2018-09-09T23:17:54.989Z,19.70
2018-09-09T23:20:25.492Z,19.50
2018-09-09T23:22:55.998Z,19.43
2018-09-09T23:25:26.488Z,19.38
2018-09-09T23:27:57.420Z,19.04
2018-09-09T23:30:27.957Z,18.88
2018-09-09T23:32:59.103Z,18.71
2018-09-09T23:35:29.682Z,18.84
2018-09-09T23:38:00.204Z,18.90
2018-09-09T23:40:31.002Z,18.59
2018-09-09T23:43:01.546Z,18.48
2018-09-09T23:45:32.068Z,18.43
2018-09-09T23:48:02.880Z,18.61
2018-09-09T23:50:33.430Z,18.61
2018-09-09T23:53:03.936Z,18.73
2018-09-09T23:55:34.474Z,18.58
2018-09-09T23:58:04.757Z,18.55
